Airfield :







YOU CAN JOIN US ON...

 
LOGIN :

Register | Disclaimer

   EN    FR    IT 

 









Legend :    VFR   Marginal VFR   IFR   Intensive IFR   Very Intensive IFR
Visi :
Ceiling :
>= 8 km
>= 3000ft
5 to 8 km
1000 to 3000 ft
1500m to 5 km
500 to 1000 ft
800 to 1500m
200 to 500 ft
< 800m
< 200 ft
Symbols :   Thunderstorms  Fog  Heavy snow  Heavy precipitations  Wind > 20 kt






- Airport Elevation : 787 ft
- IATA code : RUT


KRUT - Rutland - Southern Vermont Regional

CURRENT METAR :
  • 211056Z AUTO 12005KT 10SM CLR M19/M21 A3037 RMK AO2 SLP298 T11891211 FZRANO $

EXPIRED METARs :
  • 210956Z AUTO 00000KT 10SM CLR M18/M21 A3034 RMK AO2 SLP289 T11831206 FZRANO $
  • 210856Z AUTO 11004KT 10SM CLR M18/M20 A3034 RMK AO2 SLP284 T11781200 51007 FZRANO $

TAF KRUT
Valid from the 21 at 12:00 until the 22 at 12:00 UTC


211131Z 2112/2212 VRB03KT P6SM SKC
FM211600 32003KT P6SM SCT180
FM211900 31004KT P6SM BKN120
FM220100 14005KT P6SM BKN090



MET'MAP, your aeronautical weather chart ! - Copyright ORBIFLY December 2007 - Disclaimer

ORBIFLY MET'MAP TEAM :

Programming & Development : Alexandra Zaïnal
Concept & original design : Baudouin d'Aumeries
Assistance for programming : Marc-Olivier Méhu
Technical & hardware support : Manuel Goepfert

Contact : metmap@orbifly.com




SOURCES & CREDITS :

   NOAA